sensor_id;sensor_type;location;lat;lon;timestamp;P1;durP1;ratioP1;P2;durP2;ratioP2
41984;SDS011;28319;48.116;10.818;2024-03-22T00:02:07;11.03;;;7.87;;
41984;SDS011;28319;48.116;10.818;2024-03-22T00:07:13;12.90;;;9.20;;
41984;SDS011;28319;48.116;10.818;2024-03-22T00:12:15;14.70;;;10.67;;
41984;SDS011;28319;48.116;10.818;2024-03-22T00:17:18;14.27;;;10.13;;
41984;SDS011;28319;48.116;10.818;2024-03-22T00:22:21;10.53;;;8.67;;
41984;SDS011;28319;48.116;10.818;2024-03-22T00:27:23;10.37;;;7.27;;
41984;SDS011;28319;48.116;10.818;2024-03-22T00:32:25;11.40;;;8.20;;
41984;SDS011;28319;48.116;10.818;2024-03-22T00:37:28;13.13;;;9.30;;
41984;SDS011;28319;48.116;10.818;2024-03-22T00:42:30;12.13;;;8.23;;
41984;SDS011;28319;48.116;10.818;2024-03-22T00:47:32;10.13;;;8.10;;
41984;SDS011;28319;48.116;10.818;2024-03-22T00:52:36;11.67;;;8.73;;
41984;SDS011;28319;48.116;10.818;2024-03-22T00:57:38;13.87;;;8.07;;
41984;SDS011;28319;48.116;10.818;2024-03-22T01:02:40;10.53;;;7.27;;
41984;SDS011;28319;48.116;10.818;2024-03-22T01:07:44;12.53;;;8.57;;
41984;SDS011;28319;48.116;10.818;2024-03-22T01:12:46;10.73;;;7.23;;
41984;SDS011;28319;48.116;10.818;2024-03-22T01:17:49;10.10;;;7.07;;
41984;SDS011;28319;48.116;10.818;2024-03-22T01:22:56;11.83;;;8.90;;
41984;SDS011;28319;48.116;10.818;2024-03-22T01:28:00;9.30;;;6.97;;
41984;SDS011;28319;48.116;10.818;2024-03-22T01:33:04;12.90;;;8.67;;
41984;SDS011;28319;48.116;10.818;2024-03-22T01:38:08;11.40;;;7.70;;
41984;SDS011;28319;48.116;10.818;2024-03-22T01:43:10;10.87;;;7.13;;
41984;SDS011;28319;48.116;10.818;2024-03-22T01:48:12;10.90;;;8.13;;
41984;SDS011;28319;48.116;10.818;2024-03-22T01:53:16;10.70;;;7.90;;
41984;SDS011;28319;48.116;10.818;2024-03-22T01:58:18;11.47;;;8.33;;
41984;SDS011;28319;48.116;10.818;2024-03-22T02:03:21;11.93;;;7.67;;
41984;SDS011;28319;48.116;10.818;2024-03-22T02:08:24;10.87;;;7.40;;
41984;SDS011;28319;48.116;10.818;2024-03-22T02:13:26;10.20;;;7.37;;
41984;SDS011;28319;48.116;10.818;2024-03-22T02:18:28;10.80;;;8.13;;
41984;SDS011;28319;48.116;10.818;2024-03-22T02:23:33;11.13;;;7.83;;
41984;SDS011;28319;48.116;10.818;2024-03-22T02:28:36;9.53;;;6.90;;
41984;SDS011;28319;48.116;10.818;2024-03-22T02:33:38;9.93;;;7.07;;
41984;SDS011;28319;48.116;10.818;2024-03-22T02:38:41;10.43;;;7.67;;
41984;SDS011;28319;48.116;10.818;2024-03-22T02:43:43;11.17;;;7.40;;
41984;SDS011;28319;48.116;10.818;2024-03-22T02:48:45;11.47;;;7.57;;
41984;SDS011;28319;48.116;10.818;2024-03-22T02:53:49;9.47;;;6.60;;
41984;SDS011;28319;48.116;10.818;2024-03-22T02:58:51;12.83;;;7.73;;
41984;SDS011;28319;48.116;10.818;2024-03-22T03:03:53;9.93;;;7.10;;
41984;SDS011;28319;48.116;10.818;2024-03-22T03:08:58;9.37;;;6.77;;
41984;SDS011;28319;48.116;10.818;2024-03-22T03:14:00;12.83;;;7.70;;
41984;SDS011;28319;48.116;10.818;2024-03-22T03:19:02;10.47;;;6.77;;
41984;SDS011;28319;48.116;10.818;2024-03-22T03:24:06;10.33;;;7.37;;
41984;SDS011;28319;48.116;10.818;2024-03-22T03:29:09;8.97;;;6.87;;
41984;SDS011;28319;48.116;10.818;2024-03-22T03:34:11;12.20;;;7.23;;
41984;SDS011;28319;48.116;10.818;2024-03-22T03:39:14;9.63;;;6.17;;
41984;SDS011;28319;48.116;10.818;2024-03-22T03:44:16;10.30;;;7.40;;
41984;SDS011;28319;48.116;10.818;2024-03-22T03:49:18;8.60;;;6.67;;
41984;SDS011;28319;48.116;10.818;2024-03-22T03:54:26;9.03;;;6.40;;
41984;SDS011;28319;48.116;10.818;2024-03-22T03:59:29;13.37;;;7.20;;
41984;SDS011;28319;48.116;10.818;2024-03-22T04:04:31;9.63;;;6.93;;
41984;SDS011;28319;48.116;10.818;2024-03-22T04:09:34;10.30;;;6.83;;
41984;SDS011;28319;48.116;10.818;2024-03-22T04:14:37;10.00;;;6.30;;
41984;SDS011;28319;48.116;10.818;2024-03-22T04:19:39;7.57;;;5.80;;
41984;SDS011;28319;48.116;10.818;2024-03-22T04:24:42;6.37;;;5.57;;
41984;SDS011;28319;48.116;10.818;2024-03-22T04:29:47;9.83;;;6.23;;
41984;SDS011;28319;48.116;10.818;2024-03-22T04:34:49;8.83;;;5.70;;
41984;SDS011;28319;48.116;10.818;2024-03-22T04:39:52;8.57;;;5.80;;
41984;SDS011;28319;48.116;10.818;2024-03-22T04:44:54;8.13;;;6.03;;
41984;SDS011;28319;48.116;10.818;2024-03-22T04:49:57;7.13;;;5.13;;
41984;SDS011;28319;48.116;10.818;2024-03-22T04:55:01;6.97;;;4.80;;
41984;SDS011;28319;48.116;10.818;2024-03-22T05:00:04;7.30;;;5.47;;
41984;SDS011;28319;48.116;10.818;2024-03-22T05:05:08;6.80;;;5.37;;
41984;SDS011;28319;48.116;10.818;2024-03-22T05:10:12;7.50;;;5.27;;
41984;SDS011;28319;48.116;10.818;2024-03-22T05:15:14;7.33;;;5.43;;
41984;SDS011;28319;48.116;10.818;2024-03-22T05:20:16;8.20;;;4.73;;
41984;SDS011;28319;48.116;10.818;2024-03-22T05:25:20;6.40;;;4.57;;
41984;SDS011;28319;48.116;10.818;2024-03-22T05:30:23;6.63;;;5.00;;
41984;SDS011;28319;48.116;10.818;2024-03-22T05:35:27;5.93;;;5.00;;
41984;SDS011;28319;48.116;10.818;2024-03-22T05:40:30;8.67;;;5.80;;
41984;SDS011;28319;48.116;10.818;2024-03-22T05:45:32;7.47;;;5.03;;
41984;SDS011;28319;48.116;10.818;2024-03-22T05:50:34;5.67;;;4.67;;
41984;SDS011;28319;48.116;10.818;2024-03-22T05:55:38;7.67;;;4.80;;
41984;SDS011;28319;48.116;10.818;2024-03-22T06:00:40;6.43;;;4.20;;
41984;SDS011;28319;48.116;10.818;2024-03-22T06:05:42;4.97;;;4.23;;
41984;SDS011;28319;48.116;10.818;2024-03-22T06:10:45;8.40;;;4.83;;
41984;SDS011;28319;48.116;10.818;2024-03-22T06:15:48;6.00;;;4.63;;
41984;SDS011;28319;48.116;10.818;2024-03-22T06:20:50;6.50;;;4.87;;
41984;SDS011;28319;48.116;10.818;2024-03-22T06:25:56;5.57;;;4.60;;
41984;SDS011;28319;48.116;10.818;2024-03-22T06:30:58;6.83;;;5.23;;
41984;SDS011;28319;48.116;10.818;2024-03-22T06:36:00;5.63;;;4.50;;
41984;SDS011;28319;48.116;10.818;2024-03-22T06:41:04;7.70;;;4.37;;
41984;SDS011;28319;48.116;10.818;2024-03-22T06:46:06;6.40;;;4.97;;
41984;SDS011;28319;48.116;10.818;2024-03-22T06:51:08;5.20;;;4.63;;
41984;SDS011;28319;48.116;10.818;2024-03-22T06:56:12;6.60;;;4.77;;
41984;SDS011;28319;48.116;10.818;2024-03-22T07:01:17;4.83;;;4.30;;
41984;SDS011;28319;48.116;10.818;2024-03-22T07:06:20;5.57;;;4.47;;
41984;SDS011;28319;48.116;10.818;2024-03-22T07:11:24;6.80;;;4.20;;
41984;SDS011;28319;48.116;10.818;2024-03-22T07:16:26;5.43;;;4.93;;
41984;SDS011;28319;48.116;10.818;2024-03-22T07:21:28;5.33;;;4.33;;
41984;SDS011;28319;48.116;10.818;2024-03-22T07:26:32;5.37;;;4.67;;
41984;SDS011;28319;48.116;10.818;2024-03-22T07:31:34;8.13;;;4.90;;
41984;SDS011;28319;48.116;10.818;2024-03-22T07:36:37;5.97;;;4.83;;
41984;SDS011;28319;48.116;10.818;2024-03-22T07:41:41;7.23;;;4.63;;
41984;SDS011;28319;48.116;10.818;2024-03-22T07:46:43;6.27;;;4.53;;
41984;SDS011;28319;48.116;10.818;2024-03-22T07:51:46;5.20;;;4.37;;
41984;SDS011;28319;48.116;10.818;2024-03-22T07:56:49;5.00;;;4.20;;
41984;SDS011;28319;48.116;10.818;2024-03-22T08:01:51;5.23;;;4.57;;
41984;SDS011;28319;48.116;10.818;2024-03-22T08:06:53;4.60;;;4.20;;
41984;SDS011;28319;48.116;10.818;2024-03-22T08:11:57;5.90;;;3.90;;
41984;SDS011;28319;48.116;10.818;2024-03-22T08:16:59;4.00;;;3.60;;
41984;SDS011;28319;48.116;10.818;2024-03-22T08:22:01;5.80;;;3.70;;
41984;SDS011;28319;48.116;10.818;2024-03-22T08:27:05;5.03;;;3.97;;
41984;SDS011;28319;48.116;10.818;2024-03-22T08:32:07;5.30;;;3.93;;
41984;SDS011;28319;48.116;10.818;2024-03-22T08:37:09;3.63;;;3.30;;
41984;SDS011;28319;48.116;10.818;2024-03-22T08:42:12;4.10;;;3.03;;
41984;SDS011;28319;48.116;10.818;2024-03-22T08:47:15;3.30;;;3.00;;
41984;SDS011;28319;48.116;10.818;2024-03-22T08:52:16;4.63;;;3.43;;
41984;SDS011;28319;48.116;10.818;2024-03-22T08:57:20;3.47;;;3.17;;
41984;SDS011;28319;48.116;10.818;2024-03-22T09:02:22;5.23;;;3.27;;
41984;SDS011;28319;48.116;10.818;2024-03-22T09:07:24;18.43;;;11.23;;
41984;SDS011;28319;48.116;10.818;2024-03-22T09:12:28;3.60;;;3.10;;
41984;SDS011;28319;48.116;10.818;2024-03-22T09:17:30;6.23;;;3.30;;
41984;SDS011;28319;48.116;10.818;2024-03-22T09:22:32;3.77;;;3.47;;
41984;SDS011;28319;48.116;10.818;2024-03-22T09:27:36;7.67;;;3.50;;
41984;SDS011;28319;48.116;10.818;2024-03-22T09:32:38;3.53;;;3.23;;
41984;SDS011;28319;48.116;10.818;2024-03-22T09:37:40;3.87;;;3.40;;
41984;SDS011;28319;48.116;10.818;2024-03-22T09:42:44;3.25;;;2.92;;
41984;SDS011;28319;48.116;10.818;2024-03-22T09:47:50;3.25;;;2.95;;
41984;SDS011;28319;48.116;10.818;2024-03-22T09:52:56;3.85;;;3.50;;
41984;SDS011;28319;48.116;10.818;2024-03-22T09:57:59;3.00;;;2.80;;
41984;SDS011;28319;48.116;10.818;2024-03-22T10:03:02;3.03;;;2.78;;
41984;SDS011;28319;48.116;10.818;2024-03-22T10:08:06;3.20;;;2.90;;
41984;SDS011;28319;48.116;10.818;2024-03-22T10:13:10;4.07;;;2.80;;
41984;SDS011;28319;48.116;10.818;2024-03-22T10:18:12;3.95;;;3.03;;
41984;SDS011;28319;48.116;10.818;2024-03-22T10:23:15;2.65;;;2.40;;
41984;SDS011;28319;48.116;10.818;2024-03-22T10:28:19;3.80;;;3.00;;
41984;SDS011;28319;48.116;10.818;2024-03-22T10:33:21;3.33;;;2.92;;
41984;SDS011;28319;48.116;10.818;2024-03-22T10:38:23;3.47;;;3.00;;
41984;SDS011;28319;48.116;10.818;2024-03-22T10:43:28;3.42;;;2.97;;
41984;SDS011;28319;48.116;10.818;2024-03-22T10:48:31;5.93;;;2.90;;
41984;SDS011;28319;48.116;10.818;2024-03-22T10:53:34;7.10;;;5.72;;
41984;SDS011;28319;48.116;10.818;2024-03-22T10:58:40;4.07;;;2.88;;
41984;SDS011;28319;48.116;10.818;2024-03-22T11:03:47;3.22;;;2.72;;
41984;SDS011;28319;48.116;10.818;2024-03-22T11:08:49;3.28;;;2.97;;
41984;SDS011;28319;48.116;10.818;2024-03-22T11:13:54;3.60;;;2.80;;
41984;SDS011;28319;48.116;10.818;2024-03-22T11:18:57;4.03;;;2.75;;
41984;SDS011;28319;48.116;10.818;2024-03-22T11:24:00;3.58;;;2.80;;
41984;SDS011;28319;48.116;10.818;2024-03-22T11:29:03;2.65;;;2.45;;
41984;SDS011;28319;48.116;10.818;2024-03-22T11:34:05;2.72;;;2.50;;
41984;SDS011;28319;48.116;10.818;2024-03-22T11:39:08;3.00;;;2.60;;
41984;SDS011;28319;48.116;10.818;2024-03-22T11:44:13;3.35;;;2.70;;
41984;SDS011;28319;48.116;10.818;2024-03-22T11:49:16;2.97;;;2.65;;
41984;SDS011;28319;48.116;10.818;2024-03-22T11:54:19;2.40;;;2.30;;
41984;SDS011;28319;48.116;10.818;2024-03-22T11:59:23;3.00;;;2.70;;
41984;SDS011;28319;48.116;10.818;2024-03-22T12:04:25;3.20;;;2.65;;
41984;SDS011;28319;48.116;10.818;2024-03-22T12:09:27;3.10;;;2.75;;
41984;SDS011;28319;48.116;10.818;2024-03-22T12:14:33;4.25;;;2.60;;
41984;SDS011;28319;48.116;10.818;2024-03-22T12:19:36;2.67;;;2.30;;
41984;SDS011;28319;48.116;10.818;2024-03-22T12:24:38;2.83;;;2.50;;
41984;SDS011;28319;48.116;10.818;2024-03-22T12:29:43;2.85;;;2.50;;
41984;SDS011;28319;48.116;10.818;2024-03-22T12:34:45;3.35;;;2.60;;
41984;SDS011;28319;48.116;10.818;2024-03-22T12:39:47;2.97;;;2.40;;
41984;SDS011;28319;48.116;10.818;2024-03-22T12:44:51;2.63;;;2.42;;
41984;SDS011;28319;48.116;10.818;2024-03-22T12:49:53;3.55;;;2.50;;
41984;SDS011;28319;48.116;10.818;2024-03-22T12:54:55;2.85;;;2.65;;
41984;SDS011;28319;48.116;10.818;2024-03-22T13:00:00;4.00;;;2.17;;
41984;SDS011;28319;48.116;10.818;2024-03-22T13:05:03;1.75;;;1.65;;
41984;SDS011;28319;48.116;10.818;2024-03-22T13:10:06;2.38;;;2.10;;
41984;SDS011;28319;48.116;10.818;2024-03-22T13:15:10;3.63;;;2.20;;
41984;SDS011;28319;48.116;10.818;2024-03-22T13:20:12;2.92;;;2.15;;
41984;SDS011;28319;48.116;10.818;2024-03-22T13:25:15;3.30;;;2.10;;
41984;SDS011;28319;48.116;10.818;2024-03-22T13:30:20;4.10;;;2.20;;
41984;SDS011;28319;48.116;10.818;2024-03-22T13:35:22;2.40;;;2.20;;
41984;SDS011;28319;48.116;10.818;2024-03-22T13:40:24;3.92;;;2.15;;
41984;SDS011;28319;48.116;10.818;2024-03-22T13:45:28;4.72;;;3.10;;
41984;SDS011;28319;48.116;10.818;2024-03-22T13:50:30;2.00;;;1.90;;
41984;SDS011;28319;48.116;10.818;2024-03-22T13:55:32;2.47;;;2.08;;
41984;SDS011;28319;48.116;10.818;2024-03-22T14:00:36;2.00;;;1.60;;
41984;SDS011;28319;48.116;10.818;2024-03-22T14:05:38;2.53;;;1.85;;
41984;SDS011;28319;48.116;10.818;2024-03-22T14:10:40;3.60;;;1.92;;
41984;SDS011;28319;48.116;10.818;2024-03-22T14:15:43;5.15;;;2.00;;
41984;SDS011;28319;48.116;10.818;2024-03-22T14:20:48;1.77;;;1.50;;
41984;SDS011;28319;48.116;10.818;2024-03-22T14:25:50;2.45;;;1.67;;
41984;SDS011;28319;48.116;10.818;2024-03-22T14:30:53;1.83;;;1.40;;
41984;SDS011;28319;48.116;10.818;2024-03-22T14:35:56;1.60;;;1.50;;
41984;SDS011;28319;48.116;10.818;2024-03-22T14:40:58;2.72;;;1.25;;
41984;SDS011;28319;48.116;10.818;2024-03-22T14:46:02;1.08;;;1.05;;
41984;SDS011;28319;48.116;10.818;2024-03-22T14:51:04;1.58;;;1.35;;
41984;SDS011;28319;48.116;10.818;2024-03-22T14:56:07;1.30;;;1.20;;
41984;SDS011;28319;48.116;10.818;2024-03-22T15:01:11;1.23;;;1.20;;
41984;SDS011;28319;48.116;10.818;2024-03-22T15:06:13;1.15;;;1.15;;
41984;SDS011;28319;48.116;10.818;2024-03-22T15:11:15;1.90;;;1.10;;
41984;SDS011;28319;48.116;10.818;2024-03-22T15:16:19;2.80;;;1.05;;
41984;SDS011;28319;48.116;10.818;2024-03-22T15:21:21;1.40;;;1.30;;
41984;SDS011;28319;48.116;10.818;2024-03-22T15:26:23;0.90;;;0.90;;
41984;SDS011;28319;48.116;10.818;2024-03-22T15:31:26;3.63;;;1.45;;
41984;SDS011;28319;48.116;10.818;2024-03-22T15:36:29;1.00;;;1.00;;
41984;SDS011;28319;48.116;10.818;2024-03-22T15:41:31;1.25;;;0.98;;
41984;SDS011;28319;48.116;10.818;2024-03-22T15:46:35;1.33;;;1.23;;
41984;SDS011;28319;48.116;10.818;2024-03-22T15:51:37;2.28;;;1.20;;
41984;SDS011;28319;48.116;10.818;2024-03-22T15:56:40;2.00;;;1.50;;
41984;SDS011;28319;48.116;10.818;2024-03-22T16:01:44;2.08;;;1.98;;
41984;SDS011;28319;48.116;10.818;2024-03-22T16:06:46;8.13;;;4.93;;
41984;SDS011;28319;48.116;10.818;2024-03-22T16:11:48;7.72;;;5.70;;
41984;SDS011;28319;48.116;10.818;2024-03-22T16:16:51;10.95;;;9.55;;
41984;SDS011;28319;48.116;10.818;2024-03-22T16:21:53;9.85;;;5.20;;
41984;SDS011;28319;48.116;10.818;2024-03-22T16:26:55;3.50;;;2.65;;
41984;SDS011;28319;48.116;10.818;2024-03-22T16:31:59;5.80;;;2.47;;
41984;SDS011;28319;48.116;10.818;2024-03-22T16:37:03;2.08;;;1.55;;
41984;SDS011;28319;48.116;10.818;2024-03-22T16:42:05;4.07;;;3.72;;
41984;SDS011;28319;48.116;10.818;2024-03-22T16:47:10;2.67;;;2.47;;
41984;SDS011;28319;48.116;10.818;2024-03-22T16:52:13;4.45;;;4.05;;
41984;SDS011;28319;48.116;10.818;2024-03-22T16:57:15;1.75;;;1.65;;
41984;SDS011;28319;48.116;10.818;2024-03-22T17:02:19;1.50;;;1.40;;
41984;SDS011;28319;48.116;10.818;2024-03-22T17:07:21;2.78;;;2.58;;
41984;SDS011;28319;48.116;10.818;2024-03-22T17:12:23;19.80;;;12.80;;
41984;SDS011;28319;48.116;10.818;2024-03-22T17:17:26;2.78;;;2.58;;
41984;SDS011;28319;48.116;10.818;2024-03-22T17:22:28;2.63;;;2.42;;
41984;SDS011;28319;48.116;10.818;2024-03-22T17:27:30;5.03;;;3.38;;
41984;SDS011;28319;48.116;10.818;2024-03-22T17:32:34;2.75;;;2.53;;
41984;SDS011;28319;48.116;10.818;2024-03-22T17:37:36;4.05;;;1.63;;
41984;SDS011;28319;48.116;10.818;2024-03-22T17:42:39;3.45;;;1.80;;
41984;SDS011;28319;48.116;10.818;2024-03-22T17:47:45;1.60;;;1.50;;
41984;SDS011;28319;48.116;10.818;2024-03-22T17:52:47;1.70;;;1.60;;
41984;SDS011;28319;48.116;10.818;2024-03-22T17:57:49;3.13;;;2.92;;
41984;SDS011;28319;48.116;10.818;2024-03-22T18:02:53;2.70;;;2.50;;
41984;SDS011;28319;48.116;10.818;2024-03-22T18:07:55;2.25;;;2.15;;
41984;SDS011;28319;48.116;10.818;2024-03-22T18:12:59;3.40;;;2.42;;
41984;SDS011;28319;48.116;10.818;2024-03-22T18:18:02;2.70;;;2.38;;
41984;SDS011;28319;48.116;10.818;2024-03-22T18:23:05;3.30;;;1.70;;
41984;SDS011;28319;48.116;10.818;2024-03-22T18:28:07;1.70;;;1.60;;
41984;SDS011;28319;48.116;10.818;2024-03-22T18:33:11;2.50;;;2.30;;
41984;SDS011;28319;48.116;10.818;2024-03-22T18:38:13;6.95;;;6.30;;
41984;SDS011;28319;48.116;10.818;2024-03-22T18:43:15;1.92;;;1.77;;
41984;SDS011;28319;48.116;10.818;2024-03-22T18:48:18;1.88;;;1.67;;
41984;SDS011;28319;48.116;10.818;2024-03-22T18:53:20;1.90;;;1.80;;
41984;SDS011;28319;48.116;10.818;2024-03-22T18:58:22;3.47;;;2.08;;
41984;SDS011;28319;48.116;10.818;2024-03-22T19:03:26;2.22;;;1.90;;
41984;SDS011;28319;48.116;10.818;2024-03-22T19:08:28;2.10;;;1.90;;
41984;SDS011;28319;48.116;10.818;2024-03-22T19:13:30;2.47;;;2.30;;
41984;SDS011;28319;48.116;10.818;2024-03-22T19:18:33;2.88;;;1.90;;
41984;SDS011;28319;48.116;10.818;2024-03-22T19:23:35;4.47;;;1.90;;
41984;SDS011;28319;48.116;10.818;2024-03-22T19:28:39;2.90;;;2.60;;
41984;SDS011;28319;48.116;10.818;2024-03-22T19:33:43;2.47;;;2.00;;
41984;SDS011;28319;48.116;10.818;2024-03-22T19:38:45;2.00;;;1.90;;
41984;SDS011;28319;48.116;10.818;2024-03-22T19:43:48;1.90;;;1.73;;
41984;SDS011;28319;48.116;10.818;2024-03-22T19:48:54;2.97;;;2.10;;
41984;SDS011;28319;48.116;10.818;2024-03-22T19:53:57;3.00;;;2.30;;
41984;SDS011;28319;48.116;10.818;2024-03-22T19:58:59;3.10;;;2.05;;
41984;SDS011;28319;48.116;10.818;2024-03-22T20:04:02;3.33;;;2.22;;
41984;SDS011;28319;48.116;10.818;2024-03-22T20:09:05;2.63;;;2.03;;
41984;SDS011;28319;48.116;10.818;2024-03-22T20:14:08;2.58;;;1.90;;
41984;SDS011;28319;48.116;10.818;2024-03-22T20:19:12;1.48;;;1.38;;
41984;SDS011;28319;48.116;10.818;2024-03-22T20:24:15;1.83;;;1.73;;
41984;SDS011;28319;48.116;10.818;2024-03-22T20:29:17;2.20;;;1.80;;
41984;SDS011;28319;48.116;10.818;2024-03-22T20:34:20;2.00;;;1.80;;
